Time,TemperatureF,DewpointF,PressureIn,WindDirection,WindDirectionDegrees,WindSpeedMPH,WindSpeedGustMPH,Humidity,HourlyPrecipIn,Conditions,Clouds,dailyrainin,SolarRadiationWatts/m^2,SoftwareType,DateUTC
2013-04-01 00:03:00,42.0,40.0,-100.00,SW,226,4.0,8.0,94,0.00,,,0.14,0.000000,,2013-04-01 04:03:00,
2013-04-01 00:33:00,42.0,40.0,-100.00,SW,217,5.0,10.0,94,0.00,,,0.14,0.000000,,2013-04-01 04:33:00,
2013-04-01 00:44:00,42.0,40.0,-100.00,SW,217,5.0,10.0,94,0.00,,,0.14,0.000000,,2013-04-01 04:44:00,
2013-04-01 00:53:00,42.0,40.0,-100.00,SW,217,5.0,10.0,94,0.00,,,0.14,0.000000,,2013-04-01 04:53:00,
2013-04-01 01:03:00,42.0,40.0,-100.00,SW,217,5.0,10.0,94,0.00,,,0.14,0.000000,,2013-04-01 05:03:00,
2013-04-01 01:33:00,41.0,39.0,-100.00,WSW,237,4.0,7.0,94,0.00,,,0.14,0.000000,,2013-04-01 05:33:00,
2013-04-01 01:43:00,41.0,39.0,-100.00,WSW,237,4.0,7.0,94,0.00,,,0.14,0.000000,,2013-04-01 05:43:00,
2013-04-01 01:53:00,41.0,39.0,-100.00,WSW,237,4.0,7.0,94,0.00,,,0.14,0.000000,,2013-04-01 05:53:00,
2013-04-01 02:02:00,41.0,39.0,-100.00,WSW,237,4.0,7.0,94,0.00,,,0.14,0.000000,,2013-04-01 06:02:00,
2013-04-01 02:34:00,41.0,39.0,-100.00,SW,229,5.0,7.0,94,0.00,,,0.14,0.000000,,2013-04-01 06:34:00,
2013-04-01 02:43:00,41.0,39.0,-100.00,SW,229,5.0,7.0,94,0.00,,,0.14,0.000000,,2013-04-01 06:43:00,
2013-04-01 02:53:00,41.0,39.0,-100.00,SW,229,5.0,7.0,94,0.00,,,0.14,0.000000,,2013-04-01 06:53:00,
2013-04-01 03:03:00,41.0,39.0,-100.00,SW,229,5.0,7.0,94,0.00,,,0.14,0.000000,,2013-04-01 07:03:00,
2013-04-01 03:32:00,41.0,39.0,-100.00,SW,226,5.0,10.0,92,0.00,,,-99.99,0.000000,,2013-04-01 07:32:00,
2013-04-01 03:43:00,41.0,39.0,-100.00,SW,226,5.0,10.0,92,0.00,,,-99.99,0.000000,,2013-04-01 07:43:00,
2013-04-01 03:53:00,41.0,39.0,-100.00,SW,226,5.0,10.0,92,0.00,,,-99.99,0.000000,,2013-04-01 07:53:00,
2013-04-01 04:03:00,41.0,39.0,-100.00,SW,226,5.0,10.0,92,0.00,,,-99.99,0.000000,,2013-04-01 08:03:00,
2013-04-01 04:32:00,42.0,39.0,-100.00,SW,229,7.0,14.0,90,0.00,,,0.14,0.000000,,2013-04-01 08:32:00,
2013-04-01 04:43:00,42.0,39.0,-100.00,SW,229,7.0,14.0,90,0.00,,,0.14,0.000000,,2013-04-01 08:43:00,
2013-04-01 04:53:00,42.0,39.0,-100.00,SW,229,7.0,14.0,90,0.00,,,0.14,0.000000,,2013-04-01 08:53:00,
2013-04-01 05:02:00,42.0,39.0,-100.00,SW,229,7.0,14.0,90,0.00,,,0.14,0.000000,,2013-04-01 09:02:00,
2013-04-01 05:33:00,41.0,38.0,-100.00,SW,235,5.0,10.0,90,0.00,,,0.14,0.000000,,2013-04-01 09:33:00,
2013-04-01 05:43:00,41.0,38.0,-100.00,SW,235,5.0,10.0,90,0.00,,,0.14,0.000000,,2013-04-01 09:43:00,
2013-04-01 05:53:00,41.0,38.0,-100.00,SW,235,5.0,10.0,90,0.00,,,0.14,0.000000,,2013-04-01 09:53:00,
2013-04-01 06:03:00,41.0,38.0,-100.00,SW,235,5.0,10.0,90,0.00,,,0.14,0.000000,,2013-04-01 10:03:00,
2013-04-01 06:34:00,39.0,36.0,-100.00,West,280,8.0,17.0,89,0.02,,,0.16,0.000000,,2013-04-01 10:34:00,
2013-04-01 06:43:00,39.0,36.0,-100.00,West,280,8.0,17.0,89,0.02,,,0.16,0.000000,,2013-04-01 10:43:00,
2013-04-01 06:53:00,39.0,36.0,-100.00,West,280,8.0,17.0,89,0.02,,,0.16,0.000000,,2013-04-01 10:53:00,
2013-04-01 07:03:00,39.0,36.0,-100.00,West,280,8.0,17.0,89,0.02,,,0.16,0.000000,,2013-04-01 11:03:00,
2013-04-01 07:33:00,37.0,34.0,-100.00,West,269,5.0,11.0,89,0.00,,,0.16,0.000000,,2013-04-01 11:33:00,
2013-04-01 07:43:00,37.0,34.0,-100.00,West,269,5.0,11.0,89,0.00,,,0.16,0.000000,,2013-04-01 11:43:00,
2013-04-01 07:53:00,37.0,34.0,-100.00,West,269,5.0,11.0,89,0.00,,,0.16,0.000000,,2013-04-01 11:53:00,
2013-04-01 08:03:00,37.0,34.0,-100.00,West,269,5.0,11.0,89,0.00,,,0.16,0.000000,,2013-04-01 12:03:00,
2013-04-01 08:32:00,34.0,30.0,-100.00,WNW,291,7.0,12.0,85,0.00,,,-99.99,17.000000,,2013-04-01 12:32:00,
2013-04-01 08:43:00,34.0,30.0,-100.00,WNW,291,7.0,12.0,85,0.00,,,-99.99,17.000000,,2013-04-01 12:43:00,
2013-04-01 08:53:00,34.0,30.0,-100.00,WNW,291,7.0,12.0,85,0.00,,,-99.99,17.000000,,2013-04-01 12:53:00,
2013-04-01 09:03:00,34.0,30.0,-100.00,WNW,291,7.0,12.0,85,0.00,,,-99.99,17.000000,,2013-04-01 13:03:00,
2013-04-01 09:33:00,31.0,25.0,-100.00,WNW,291,8.0,17.0,79,0.00,,,0.16,76.000000,,2013-04-01 13:33:00,
2013-04-01 09:43:00,31.0,25.0,-100.00,WNW,291,8.0,17.0,79,0.00,,,0.16,76.000000,,2013-04-01 13:43:00,
2013-04-01 09:53:00,31.0,25.0,-100.00,WNW,291,8.0,17.0,79,0.00,,,0.16,76.000000,,2013-04-01 13:53:00,
2013-04-01 10:04:00,31.0,25.0,-100.00,WNW,291,8.0,17.0,79,0.00,,,0.16,76.000000,,2013-04-01 14:04:00,
2013-04-01 10:33:00,31.0,25.0,-100.00,WNW,284,6.0,9.0,77,0.01,,,0.17,167.000000,,2013-04-01 14:33:00,
2013-04-01 10:43:00,31.0,25.0,-100.00,WNW,284,6.0,9.0,77,0.01,,,0.17,167.000000,,2013-04-01 14:43:00,
2013-04-01 10:53:00,31.0,25.0,-100.00,WNW,284,6.0,9.0,77,0.01,,,0.17,167.000000,,2013-04-01 14:53:00,
2013-04-01 11:03:00,31.0,25.0,-100.00,WNW,284,6.0,9.0,77,0.01,,,0.17,167.000000,,2013-04-01 15:03:00,
2013-04-01 11:34:00,31.0,23.0,-100.00,WNW,295,7.0,16.0,72,0.00,,,0.17,174.000000,,2013-04-01 15:34:00,
2013-04-01 11:44:00,31.0,23.0,-100.00,WNW,295,7.0,16.0,72,0.00,,,0.17,174.000000,,2013-04-01 15:44:00,
2013-04-01 11:54:00,31.0,23.0,-100.00,WNW,295,7.0,16.0,72,0.00,,,0.17,174.000000,,2013-04-01 15:54:00,
2013-04-01 12:03:00,31.0,23.0,-100.00,WNW,295,7.0,16.0,72,0.00,,,0.17,174.000000,,2013-04-01 16:03:00,
2013-04-01 13:32:00,36.0,13.0,-100.00,West,281,9.0,15.0,38,-99.99,,,0.18,888.000000,,2013-04-01 17:32:00,
2013-04-01 13:42:00,36.0,13.0,-100.00,West,281,9.0,15.0,38,-99.99,,,0.18,888.000000,,2013-04-01 17:42:00,
2013-04-01 13:53:00,36.0,13.0,-100.00,West,281,9.0,15.0,38,-99.99,,,0.18,888.000000,,2013-04-01 17:53:00,
2013-04-01 14:03:00,36.0,13.0,-100.00,West,281,9.0,15.0,38,-99.99,,,0.18,888.000000,,2013-04-01 18:03:00,
2013-04-01 14:33:00,36.0,11.0,-100.00,WNW,290,10.0,18.0,35,0.00,,,0.18,872.000000,,2013-04-01 18:33:00,
2013-04-01 14:43:00,36.0,11.0,-100.00,WNW,290,10.0,18.0,35,0.00,,,0.18,872.000000,,2013-04-01 18:43:00,
2013-04-01 14:53:00,36.0,11.0,-100.00,WNW,290,10.0,18.0,35,0.00,,,0.18,872.000000,,2013-04-01 18:53:00,
2013-04-01 15:04:00,36.0,11.0,-100.00,WNW,290,10.0,18.0,35,0.00,,,0.18,872.000000,,2013-04-01 19:04:00,
2013-04-01 15:33:00,36.0,10.0,-100.00,NW,313,9.0,17.0,34,0.00,,,0.17,853.000000,,2013-04-01 19:33:00,
2013-04-01 15:43:00,36.0,10.0,-100.00,NW,313,9.0,17.0,34,0.00,,,0.17,853.000000,,2013-04-01 19:43:00,
2013-04-01 15:53:00,36.0,10.0,-100.00,NW,313,9.0,17.0,34,0.00,,,0.17,853.000000,,2013-04-01 19:53:00,
2013-04-01 16:02:00,36.0,10.0,-100.00,NW,313,9.0,17.0,34,0.00,,,0.17,853.000000,,2013-04-01 20:02:00,
2013-04-01 16:33:00,35.0,9.0,-100.00,WNW,293,7.0,15.0,34,0.00,,,0.15,770.000000,,2013-04-01 20:33:00,
2013-04-01 16:43:00,35.0,9.0,-100.00,WNW,293,7.0,15.0,34,0.00,,,0.15,770.000000,,2013-04-01 20:43:00,
2013-04-01 16:52:00,35.0,9.0,-100.00,WNW,293,7.0,15.0,34,0.00,,,0.15,770.000000,,2013-04-01 20:52:00,
2013-04-01 17:03:00,35.0,9.0,-100.00,WNW,293,7.0,15.0,34,0.00,,,0.15,770.000000,,2013-04-01 21:03:00,
2013-04-01 17:33:00,35.0,8.0,-100.00,WNW,291,8.0,19.0,32,0.00,,,0.10,580.000000,,2013-04-01 21:33:00,
2013-04-01 17:44:00,35.0,8.0,-100.00,WNW,291,8.0,19.0,32,0.00,,,0.10,580.000000,,2013-04-01 21:44:00,
2013-04-01 17:53:00,35.0,8.0,-100.00,WNW,291,8.0,19.0,32,0.00,,,0.10,580.000000,,2013-04-01 21:53:00,
2013-04-01 18:03:00,35.0,8.0,-100.00,WNW,291,8.0,19.0,32,0.00,,,0.10,580.000000,,2013-04-01 22:03:00,
2013-04-01 18:33:00,34.0,10.0,-100.00,WNW,296,6.0,11.0,36,0.00,,,0.09,332.000000,,2013-04-01 22:33:00,
2013-04-01 18:43:00,34.0,10.0,-100.00,WNW,296,6.0,11.0,36,0.00,,,0.09,332.000000,,2013-04-01 22:43:00,
2013-04-01 18:52:00,34.0,10.0,-100.00,WNW,296,6.0,11.0,36,0.00,,,0.09,332.000000,,2013-04-01 22:52:00,
2013-04-01 19:02:00,34.0,10.0,-100.00,WNW,296,6.0,11.0,36,0.00,,,0.09,332.000000,,2013-04-01 23:02:00,
2013-04-01 19:32:00,30.0,10.0,-100.00,West,277,6.0,14.0,43,0.00,,,-99.99,108.000000,,2013-04-01 23:32:00,
2013-04-01 19:43:00,30.0,10.0,-100.00,West,277,6.0,14.0,43,0.00,,,-99.99,108.000000,,2013-04-01 23:43:00,
2013-04-01 19:53:00,30.0,10.0,-100.00,West,277,6.0,14.0,43,0.00,,,-99.99,108.000000,,2013-04-01 23:53:00,
2013-04-01 20:03:00,30.0,10.0,-100.00,West,277,6.0,14.0,43,0.00,,,-99.99,108.000000,,2013-04-02 00:03:00,
2013-04-01 20:33:00,28.0,8.0,-100.00,WNW,287,7.0,14.0,43,0.00,,,0.06,15.000000,,2013-04-02 00:33:00,
2013-04-01 20:43:00,28.0,8.0,-100.00,WNW,287,7.0,14.0,43,0.00,,,0.06,15.000000,,2013-04-02 00:43:00,
2013-04-01 20:53:00,28.0,8.0,-100.00,WNW,287,7.0,14.0,43,0.00,,,0.06,15.000000,,2013-04-02 00:53:00,
2013-04-01 21:03:00,28.0,8.0,-100.00,WNW,287,7.0,14.0,43,0.00,,,0.06,15.000000,,2013-04-02 01:03:00,
2013-04-01 21:32:00,27.0,10.0,-100.00,West,281,4.0,9.0,48,0.00,,,0.04,0.000000,,2013-04-02 01:32:00,
2013-04-01 21:43:00,27.0,10.0,-100.00,West,281,4.0,9.0,48,0.00,,,0.04,0.000000,,2013-04-02 01:43:00,
2013-04-01 21:53:00,27.0,10.0,-100.00,West,281,4.0,9.0,48,0.00,,,0.04,0.000000,,2013-04-02 01:53:00,
2013-04-01 22:03:00,27.0,10.0,-100.00,West,281,4.0,9.0,48,0.00,,,0.04,0.000000,,2013-04-02 02:03:00,
2013-04-01 22:33:00,26.0,9.0,-100.00,WNW,282,4.0,9.0,49,0.00,,,0.04,0.000000,,2013-04-02 02:33:00,
2013-04-01 22:43:00,26.0,9.0,-100.00,WNW,282,4.0,9.0,49,0.00,,,0.04,0.000000,,2013-04-02 02:43:00,
2013-04-01 22:53:00,26.0,9.0,-100.00,WNW,282,4.0,9.0,49,0.00,,,0.04,0.000000,,2013-04-02 02:53:00,
2013-04-01 23:02:00,26.0,9.0,-100.00,WNW,282,4.0,9.0,49,0.00,,,0.04,0.000000,,2013-04-02 03:02:00,
2013-04-01 23:33:00,25.0,10.0,-100.00,West,278,4.0,7.0,53,0.00,,,0.04,0.000000,,2013-04-02 03:33:00,
2013-04-01 23:43:00,25.0,10.0,-100.00,West,278,4.0,7.0,53,0.00,,,0.04,0.000000,,2013-04-02 03:43:00,
2013-04-01 23:53:00,25.0,10.0,-100.00,West,278,4.0,7.0,53,0.00,,,0.04,0.000000,,2013-04-02 03:53:00,